createdAt,value
2019-02-04T00:01:43.115Z,9.57
2019-02-04T00:04:14.144Z,7.50
2019-02-04T00:06:45.118Z,8.73
2019-02-04T00:09:16.106Z,9.20
2019-02-04T00:11:47.064Z,7.60
2019-02-04T00:14:17.999Z,8.20
2019-02-04T00:16:49.002Z,8.33
2019-02-04T00:19:19.859Z,8.73
2019-02-04T00:21:50.759Z,6.87
2019-02-04T00:24:21.711Z,7.03
2019-02-04T00:26:52.548Z,7.73
2019-02-04T00:29:23.435Z,6.77
2019-02-04T00:31:54.381Z,7.73
2019-02-04T00:34:25.557Z,7.77
2019-02-04T00:36:56.590Z,6.70
2019-02-04T00:39:27.434Z,10.63
2019-02-04T00:41:58.420Z,8.93
2019-02-04T00:44:29.277Z,7.13
2019-02-04T00:47:00.305Z,9.60
2019-02-04T00:49:31.313Z,8.13
2019-02-04T00:52:02.552Z,7.47
2019-02-04T00:54:33.533Z,7.03
2019-02-04T00:57:04.580Z,8.33
2019-02-04T00:59:35.452Z,7.00
2019-02-04T01:02:06.493Z,8.23
2019-02-04T01:04:37.749Z,8.03
2019-02-04T01:07:09.306Z,7.00
2019-02-04T01:09:40.354Z,7.37
2019-02-04T01:12:11.295Z,9.20
2019-02-04T01:14:42.236Z,6.23
2019-02-04T01:17:13.593Z,8.67
2019-02-04T01:19:44.547Z,7.97
2019-02-04T01:22:15.427Z,7.23
2019-02-04T01:24:48.224Z,8.97
2019-02-04T01:27:19.377Z,8.50
2019-02-04T01:29:50.867Z,9.20
2019-02-04T01:32:21.822Z,9.27
2019-02-04T01:34:52.711Z,9.27
2019-02-04T01:37:23.748Z,7.93
2019-02-04T01:39:54.874Z,10.13
2019-02-04T01:42:25.907Z,9.93
2019-02-04T01:44:56.881Z,7.93
2019-02-04T01:47:27.899Z,10.43
2019-02-04T01:49:58.876Z,7.77
2019-02-04T01:52:29.833Z,7.57
2019-02-04T01:55:01.087Z,8.27
2019-02-04T01:57:32.233Z,8.83
2019-02-04T02:00:03.766Z,8.17
2019-02-04T02:02:34.637Z,7.90
2019-02-04T02:05:06.659Z,7.90
2019-02-04T02:07:37.648Z,9.90
2019-02-04T02:10:11.528Z,10.10
2019-02-04T02:12:42.586Z,9.27
2019-02-04T02:15:13.603Z,7.37
2019-02-04T02:17:44.625Z,8.93
2019-02-04T02:20:24.644Z,9.37
2019-02-04T02:22:55.744Z,9.77
2019-02-04T02:25:26.778Z,10.47
2019-02-04T02:27:57.785Z,10.60
2019-02-04T02:30:31.020Z,8.47
2019-02-04T02:33:01.980Z,10.53
2019-02-04T02:35:33.025Z,8.43
2019-02-04T02:38:04.131Z,9.67
2019-02-04T02:40:35.457Z,7.53
2019-02-04T02:43:06.477Z,8.17
2019-02-04T02:45:37.387Z,8.40
2019-02-04T02:48:08.541Z,8.07
2019-02-04T02:50:39.560Z,9.43
2019-02-04T02:53:10.605Z,11.13
2019-02-04T02:55:41.827Z,8.87
2019-02-04T02:58:12.812Z,8.47
2019-02-04T03:00:43.863Z,9.43
2019-02-04T03:03:14.814Z,13.63
2019-02-04T03:05:45.758Z,9.93
2019-02-04T03:08:17.051Z,9.43
2019-02-04T03:10:48.082Z,11.17
2019-02-04T03:13:19.055Z,10.07
2019-02-04T03:15:50.074Z,9.53
2019-02-04T03:18:21.032Z,10.57
2019-02-04T03:20:52.180Z,12.87
2019-02-04T03:23:23.153Z,9.57
2019-02-04T03:25:54.180Z,10.63
2019-02-04T03:28:25.077Z,12.23
2019-02-04T03:30:58.502Z,9.83
2019-02-04T03:33:29.660Z,10.40
2019-02-04T03:36:00.546Z,9.07
2019-02-04T03:38:31.586Z,8.93
2019-02-04T03:41:02.634Z,10.83
2019-02-04T03:43:33.586Z,11.23
2019-02-04T03:46:05.179Z,8.63
2019-02-04T03:48:36.100Z,8.77
2019-02-04T03:51:07.121Z,10.63
2019-02-04T03:53:41.624Z,9.23
2019-02-04T03:56:12.498Z,8.97
2019-02-04T03:58:43.498Z,8.87
2019-02-04T04:01:14.444Z,10.60
2019-02-04T04:03:45.558Z,10.80
2019-02-04T04:06:16.605Z,12.13
2019-02-04T04:08:47.556Z,10.00
2019-02-04T04:11:18.690Z,10.23
2019-02-04T04:13:49.799Z,10.67
2019-02-04T04:16:20.841Z,10.50
2019-02-04T04:18:53.454Z,10.03
2019-02-04T04:21:29.981Z,9.63
2019-02-04T04:24:00.856Z,13.77
2019-02-04T04:26:31.884Z,8.83
2019-02-04T04:29:02.847Z,11.17
2019-02-04T04:31:33.742Z,10.07
2019-02-04T04:34:05.275Z,12.03
2019-02-04T04:36:36.301Z,15.10
2019-02-04T04:39:07.751Z,13.77
2019-02-04T04:41:38.652Z,17.03
2019-02-04T04:44:09.534Z,18.17
2019-02-04T04:46:40.843Z,18.13
2019-02-04T04:49:11.776Z,19.83
2019-02-04T04:51:42.813Z,20.53
2019-02-04T04:54:13.754Z,20.27
2019-02-04T04:56:44.814Z,17.90
2019-02-04T04:59:15.996Z,19.50
2019-02-04T05:01:47.064Z,18.90
2019-02-04T05:04:17.997Z,20.33
2019-02-04T05:06:49.094Z,18.77
2019-02-04T05:09:20.072Z,17.30
2019-02-04T05:11:51.088Z,19.13
2019-02-04T05:14:22.053Z,19.43
2019-02-04T05:16:53.196Z,23.03
2019-02-04T05:19:24.262Z,17.03
2019-02-04T05:21:55.503Z,17.13
2019-02-04T05:24:26.638Z,16.70
2019-02-04T05:26:57.610Z,15.57
2019-02-04T05:29:28.496Z,13.93
2019-02-04T05:31:59.571Z,20.03
2019-02-04T05:34:30.506Z,20.67
2019-02-04T05:37:01.449Z,18.60
2019-02-04T05:39:32.398Z,15.37
2019-02-04T05:42:03.489Z,15.63
2019-02-04T05:44:34.448Z,16.50
2019-02-04T05:47:05.730Z,14.80
2019-02-04T05:49:36.781Z,24.23
2019-02-04T05:52:11.385Z,16.40
2019-02-04T05:54:42.296Z,17.20
2019-02-04T05:57:13.315Z,15.63
2019-02-04T05:59:44.197Z,13.70
2019-02-04T06:02:15.717Z,21.27
2019-02-04T06:04:46.769Z,12.90
2019-02-04T06:07:17.688Z,21.93
2019-02-04T06:09:48.681Z,16.23
2019-02-04T06:12:20.299Z,16.43
2019-02-04T06:14:51.491Z,15.77
2019-02-04T06:17:22.589Z,17.87
2019-02-04T06:19:53.525Z,15.60
2019-02-04T06:22:24.536Z,19.90
2019-02-04T06:24:55.695Z,19.43
2019-02-04T06:27:27.133Z,14.97
2019-02-04T06:29:58.038Z,15.60
2019-02-04T06:32:29.113Z,15.53
2019-02-04T06:35:00.199Z,18.47
2019-02-04T06:37:31.167Z,13.77
2019-02-04T06:40:02.107Z,18.47
2019-02-04T06:42:38.377Z,13.63
2019-02-04T06:45:11.911Z,18.30
2019-02-04T06:47:43.449Z,15.17
2019-02-04T06:50:16.493Z,18.07
2019-02-04T06:52:54.811Z,17.00
2019-02-04T06:55:30.957Z,16.13
2019-02-04T06:58:01.939Z,17.20
2019-02-04T07:00:32.891Z,18.10
2019-02-04T07:03:04.439Z,16.10
2019-02-04T07:05:43.578Z,23.13
2019-02-04T07:08:08.567Z,24.47
2019-02-04T07:10:39.633Z,15.63
2019-02-04T07:13:10.603Z,15.07
2019-02-04T07:15:41.933Z,19.53
2019-02-04T07:18:12.920Z,21.70
2019-02-04T07:20:43.945Z,18.67
2019-02-04T07:23:15.057Z,15.57
2019-02-04T07:25:46.056Z,18.50
2019-02-04T07:28:17.493Z,12.27
2019-02-04T07:30:48.385Z,17.67
2019-02-04T07:33:19.513Z,13.97
2019-02-04T07:35:50.574Z,17.90
2019-02-04T07:38:21.632Z,15.73
2019-02-04T07:40:52.689Z,18.10
2019-02-04T07:43:23.674Z,12.67
2019-02-04T07:45:54.639Z,14.40
2019-02-04T07:48:25.558Z,12.20
2019-02-04T07:50:56.581Z,9.50
2019-02-04T07:53:27.523Z,10.83
2019-02-04T07:55:58.503Z,13.33
2019-02-04T07:58:29.389Z,12.53
2019-02-04T08:01:00.441Z,11.97
2019-02-04T08:03:33.540Z,10.70
2019-02-04T08:06:08.966Z,9.63
2019-02-04T08:08:40.012Z,13.90
2019-02-04T08:11:10.981Z,8.27
2019-02-04T08:13:42.026Z,9.17
2019-02-04T08:16:13.009Z,7.97
2019-02-04T08:18:43.924Z,8.20
2019-02-04T08:21:15.094Z,8.33
2019-02-04T08:23:45.967Z,7.83
2019-02-04T08:26:16.981Z,8.53
2019-02-04T08:28:47.994Z,6.90
2019-02-04T08:31:19.036Z,9.17
2019-02-04T08:33:49.966Z,8.57
2019-02-04T08:36:20.851Z,7.17
2019-02-04T08:38:51.796Z,11.77
2019-02-04T08:41:22.770Z,10.37
2019-02-04T08:43:53.821Z,8.03
2019-02-04T08:46:24.895Z,8.07
2019-02-04T08:48:55.823Z,9.50
2019-02-04T08:51:26.859Z,8.57
2019-02-04T08:53:57.804Z,10.30
2019-02-04T08:56:28.856Z,8.97
2019-02-04T08:58:59.701Z,7.03
2019-02-04T09:01:30.884Z,11.37
2019-02-04T09:04:01.882Z,10.83
2019-02-04T09:06:32.827Z,9.00
2019-02-04T09:09:05.206Z,7.40
2019-02-04T09:11:36.228Z,8.53
2019-02-04T09:14:07.253Z,8.43
2019-02-04T09:16:38.209Z,8.90
2019-02-04T09:19:09.374Z,9.27
2019-02-04T09:21:40.421Z,8.83
2019-02-04T09:24:11.292Z,7.13
2019-02-04T09:26:42.531Z,8.73
2019-02-04T09:29:13.399Z,6.23
2019-02-04T09:31:44.314Z,7.37
2019-02-04T09:34:15.260Z,8.57
2019-02-04T09:36:46.206Z,7.97
2019-02-04T09:39:17.087Z,7.93
2019-02-04T09:41:48.053Z,10.67
2019-02-04T09:44:19.181Z,8.60
2019-02-04T09:46:50.133Z,8.07
2019-02-04T09:49:21.151Z,8.37
2019-02-04T09:51:52.165Z,7.50
2019-02-04T09:54:23.277Z,7.60
2019-02-04T09:56:54.279Z,7.20
2019-02-04T09:59:25.207Z,9.30
2019-02-04T10:01:56.245Z,8.37
2019-02-04T10:04:39.049Z,7.80
2019-02-04T10:07:05.756Z,8.50
2019-02-04T10:09:36.683Z,9.47
2019-02-04T10:12:07.649Z,8.30
2019-02-04T10:14:40.635Z,7.63
2019-02-04T10:17:11.943Z,8.50
2019-02-04T10:19:42.960Z,7.47
2019-02-04T10:22:13.990Z,8.40
2019-02-04T10:24:44.902Z,9.63
2019-02-04T10:27:15.842Z,7.33
2019-02-04T10:29:47.076Z,7.17
2019-02-04T10:32:18.117Z,8.23
2019-02-04T10:34:50.479Z,7.40
2019-02-04T10:37:21.620Z,9.63
2019-02-04T10:39:52.518Z,9.20
2019-02-04T10:42:23.956Z,12.63
2019-02-04T10:44:55.067Z,9.80
2019-02-04T10:47:26.212Z,9.33
2019-02-04T10:49:57.143Z,8.03
2019-02-04T10:52:28.112Z,7.63
2019-02-04T10:54:59.105Z,7.73
2019-02-04T10:57:40.311Z,8.00
2019-02-04T11:00:02.857Z,9.93
2019-02-04T11:02:33.919Z,7.73
2019-02-04T11:05:08.069Z,7.60
2019-02-04T11:07:39.308Z,7.60
2019-02-04T11:10:13.287Z,7.40
2019-02-04T11:12:44.284Z,6.20
2019-02-04T11:15:17.754Z,7.67
2019-02-04T11:17:48.768Z,6.33
2019-02-04T11:20:32.107Z,6.20
2019-02-04T11:23:03.099Z,6.33
2019-02-04T11:25:34.230Z,6.33
2019-02-04T11:28:06.906Z,5.83
2019-02-04T11:30:41.083Z,5.40
2019-02-04T11:33:12.233Z,5.20
2019-02-04T11:35:43.410Z,7.80
2019-02-04T11:38:14.483Z,6.00
2019-02-04T11:40:45.989Z,8.40
2019-02-04T11:43:17.699Z,5.07
2019-02-04T11:45:48.902Z,6.90
2019-02-04T11:48:20.352Z,6.00
2019-02-04T11:50:51.498Z,4.90
2019-02-04T11:53:32.279Z,7.03
2019-02-04T11:55:55.378Z,7.87
2019-02-04T11:58:26.416Z,5.17
2019-02-04T12:00:57.449Z,5.03
2019-02-04T12:03:28.504Z,7.50
2019-02-04T12:05:59.441Z,5.20
2019-02-04T12:08:30.729Z,4.70
2019-02-04T12:11:04.175Z,5.33
2019-02-04T12:13:35.170Z,5.50
2019-02-04T12:16:06.124Z,5.43
2019-02-04T12:18:37.080Z,7.43
2019-02-04T12:21:08.304Z,4.77
2019-02-04T12:23:39.317Z,4.30
2019-02-04T12:26:10.554Z,4.30
2019-02-04T12:28:41.503Z,5.47
2019-02-04T12:31:12.625Z,6.53
2019-02-04T12:33:43.740Z,3.33
2019-02-04T12:36:14.663Z,3.70
2019-02-04T12:38:45.642Z,4.80
2019-02-04T12:41:16.653Z,4.10
2019-02-04T12:43:47.679Z,6.40
2019-02-04T12:46:19.039Z,5.00
2019-02-04T12:48:49.936Z,4.00
2019-02-04T12:51:32.912Z,3.90
2019-02-04T12:53:53.932Z,6.30
2019-02-04T12:56:24.972Z,4.73
2019-02-04T12:58:56.286Z,3.60
2019-02-04T13:01:27.242Z,4.97
2019-02-04T13:03:58.209Z,3.40
2019-02-04T13:06:29.235Z,2.90
2019-02-04T13:09:00.119Z,3.27
2019-02-04T13:11:31.165Z,3.40
2019-02-04T13:14:02.588Z,5.17
2019-02-04T13:16:33.569Z,4.00
2019-02-04T13:19:04.514Z,2.60
2019-02-04T13:21:45.036Z,4.47
2019-02-04T13:24:08.203Z,2.83
2019-02-04T13:26:39.231Z,4.97
2019-02-04T13:29:10.258Z,2.80
2019-02-04T13:31:41.294Z,3.90
2019-02-04T13:34:12.226Z,4.53
2019-02-04T13:36:43.453Z,5.00
2019-02-04T13:39:14.354Z,3.13
2019-02-04T13:41:45.363Z,3.03
2019-02-04T13:44:16.412Z,4.33
2019-02-04T13:46:47.351Z,3.90
2019-02-04T13:49:18.630Z,4.97
2019-02-04T13:51:57.048Z,5.00
2019-02-04T13:54:22.242Z,3.93
2019-02-04T13:56:53.187Z,4.53
2019-02-04T13:59:24.230Z,3.60
2019-02-04T14:01:55.210Z,5.87
2019-02-04T14:04:27.712Z,4.00
2019-02-04T14:06:58.623Z,3.90
2019-02-04T14:09:29.764Z,5.20
2019-02-04T14:12:00.841Z,8.90
2019-02-04T14:14:32.177Z,4.57
2019-02-04T14:17:03.158Z,6.47
2019-02-04T14:19:34.146Z,5.73
2019-02-04T14:22:09.342Z,5.80
2019-02-04T14:24:39.606Z,6.17
2019-02-04T14:27:11.083Z,5.33
2019-02-04T14:30:02.791Z,4.47
2019-02-04T14:32:34.081Z,6.47
2019-02-04T14:35:06.385Z,4.63
2019-02-04T14:37:46.433Z,7.00
2019-02-04T14:40:22.007Z,4.57
2019-02-04T14:42:56.035Z,4.23
2019-02-04T14:45:34.907Z,5.67
2019-02-04T14:48:28.517Z,6.17
2019-02-04T14:51:18.996Z,4.60
2019-02-04T14:54:09.277Z,3.83
2019-02-04T14:56:52.590Z,3.70
2019-02-04T14:59:30.312Z,4.37
2019-02-04T15:02:56.583Z,5.73
2019-02-04T15:05:38.459Z,3.83
2019-02-04T15:08:42.580Z,9.47
2019-02-04T15:11:16.528Z,7.07
2019-02-04T15:13:53.470Z,6.07
2019-02-04T15:16:30.127Z,5.83
2019-02-04T15:19:20.893Z,6.57
2019-02-04T15:22:09.647Z,6.13
2019-02-04T15:25:17.162Z,6.50
2019-02-04T15:28:06.870Z,6.87
2019-02-04T15:30:40.882Z,6.30
2019-02-04T15:33:23.251Z,4.80
2019-02-04T15:36:15.171Z,5.17
2019-02-04T15:39:00.863Z,5.13
2019-02-04T15:41:37.606Z,5.37
2019-02-04T15:44:35.518Z,6.60
2019-02-04T15:47:12.629Z,8.77
2019-02-04T15:50:07.154Z,8.43
2019-02-04T15:52:45.053Z,8.27
2019-02-04T15:55:14.143Z,7.93
2019-02-04T15:57:45.125Z,6.07
2019-02-04T16:00:17.219Z,7.27
2019-02-04T16:02:48.253Z,9.17
2019-02-04T16:05:19.366Z,9.47
2019-02-04T16:07:50.317Z,10.10
2019-02-04T16:10:24.073Z,6.03
2019-02-04T16:12:54.136Z,6.43
2019-02-04T16:15:25.580Z,6.27
2019-02-04T16:17:56.750Z,6.10
2019-02-04T16:20:27.771Z,6.33
2019-02-04T16:22:59.122Z,6.43
2019-02-04T16:25:30.268Z,6.63
2019-02-04T16:28:03.500Z,6.60
2019-02-04T16:30:34.580Z,7.83
2019-02-04T16:33:05.916Z,6.17
2019-02-04T16:35:36.893Z,9.20
2019-02-04T16:38:07.998Z,6.57
2019-02-04T16:40:39.007Z,8.40
2019-02-04T16:43:10.102Z,9.57
2019-02-04T16:45:41.111Z,5.93
2019-02-04T16:48:12.095Z,8.10
2019-02-04T16:50:57.388Z,9.37
2019-02-04T16:53:17.280Z,8.27
2019-02-04T16:55:48.217Z,8.87
2019-02-04T16:58:19.190Z,8.67
2019-02-04T17:00:50.217Z,6.00
2019-02-04T17:03:21.274Z,8.33
2019-02-04T17:05:52.640Z,5.37
2019-02-04T17:08:23.654Z,6.33
2019-02-04T17:10:54.808Z,7.63
2019-02-04T17:13:25.835Z,7.33
2019-02-04T17:15:57.020Z,8.00
2019-02-04T17:18:28.021Z,9.63
2019-02-04T17:20:59.363Z,8.47
2019-02-04T17:23:30.732Z,9.07
2019-02-04T17:26:01.700Z,9.17
2019-02-04T17:28:32.716Z,9.20
2019-02-04T17:31:05.207Z,8.40
2019-02-04T17:33:39.256Z,7.73
2019-02-04T17:36:11.927Z,10.67
2019-02-04T17:38:42.866Z,6.93
2019-02-04T17:41:13.964Z,10.00
2019-02-04T17:43:44.984Z,6.70
2019-02-04T17:46:16.226Z,10.50
2019-02-04T17:48:47.412Z,8.43
2019-02-04T17:51:18.568Z,6.13
2019-02-04T17:53:49.524Z,8.70
2019-02-04T17:56:20.610Z,9.73
2019-02-04T17:58:51.624Z,8.67
2019-02-04T18:01:22.960Z,10.20
2019-02-04T18:03:54.115Z,10.07
2019-02-04T18:06:25.122Z,12.87
2019-02-04T18:08:56.020Z,10.90
2019-02-04T18:11:27.136Z,9.33
2019-02-04T18:14:00.052Z,8.97
2019-02-04T18:16:31.076Z,10.87
2019-02-04T18:19:02.044Z,9.97
2019-02-04T18:21:32.960Z,12.33
2019-02-04T18:24:04.022Z,10.50
2019-02-04T18:26:35.121Z,9.93
2019-02-04T18:29:06.222Z,10.50
2019-02-04T18:31:37.259Z,10.70
2019-02-04T18:34:09.951Z,8.70
2019-02-04T18:37:00.892Z,9.80
2019-02-04T18:39:43.166Z,8.27
2019-02-04T18:42:14.162Z,11.27
2019-02-04T18:44:45.434Z,11.33
2019-02-04T18:47:16.474Z,14.00
2019-02-04T18:49:47.513Z,11.67
2019-02-04T18:52:18.572Z,12.20
2019-02-04T18:54:49.560Z,10.77
2019-02-04T18:57:20.832Z,12.77
2019-02-04T18:59:59.507Z,10.93
2019-02-04T19:02:30.452Z,12.27
2019-02-04T19:05:01.407Z,11.03
2019-02-04T19:07:32.672Z,13.20
2019-02-04T19:10:05.291Z,12.93
2019-02-04T19:12:37.959Z,12.20
2019-02-04T19:15:14.865Z,10.03
2019-02-04T19:17:46.390Z,14.93
2019-02-04T19:20:23.310Z,14.57
2019-02-04T19:22:54.312Z,10.30
2019-02-04T19:25:25.616Z,11.40
2019-02-04T19:28:07.208Z,13.00
2019-02-04T19:30:44.520Z,10.27
2019-02-04T19:33:17.325Z,10.13
2019-02-04T19:35:48.530Z,12.07
2019-02-04T19:38:19.815Z,13.43
2019-02-04T19:40:50.752Z,9.87
2019-02-04T19:43:21.715Z,11.33
2019-02-04T19:45:52.829Z,12.20
2019-02-04T19:48:23.890Z,12.20
2019-02-04T19:50:54.913Z,15.33
2019-02-04T19:53:25.993Z,13.53
2019-02-04T19:55:57.500Z,13.33
2019-02-04T19:58:28.612Z,13.40
2019-02-04T20:00:59.774Z,17.30
2019-02-04T20:03:30.905Z,14.17
2019-02-04T20:06:03.580Z,15.73
2019-02-04T20:08:34.985Z,18.37
2019-02-04T20:11:06.288Z,18.43
2019-02-04T20:13:37.276Z,15.73
2019-02-04T20:16:08.361Z,17.50
2019-02-04T20:18:39.411Z,15.73
2019-02-04T20:21:10.912Z,19.90
2019-02-04T20:23:41.839Z,16.80
2019-02-04T20:26:12.938Z,15.67
2019-02-04T20:28:43.946Z,18.30
2019-02-04T20:31:15.022Z,17.57
2019-02-04T20:33:46.117Z,22.70
2019-02-04T20:36:17.167Z,19.43
2019-02-04T20:38:48.239Z,18.70
2019-02-04T20:41:19.410Z,16.37
2019-02-04T20:43:50.736Z,22.03
2019-02-04T20:46:21.786Z,17.70
2019-02-04T20:48:53.041Z,20.03
2019-02-04T20:51:24.043Z,20.27
2019-02-04T20:53:55.101Z,20.67
2019-02-04T20:56:26.254Z,21.13
2019-02-04T20:58:57.293Z,22.13
2019-02-04T21:01:28.629Z,22.60
2019-02-04T21:03:59.530Z,19.73
2019-02-04T21:06:30.480Z,23.10
2019-02-04T21:09:01.443Z,19.47
2019-02-04T21:11:32.502Z,20.93
2019-02-04T21:14:03.580Z,24.83
2019-02-04T21:16:34.620Z,24.23
2019-02-04T21:19:06.052Z,24.20
2019-02-04T21:21:37.236Z,25.13
2019-02-04T21:24:08.327Z,24.47
2019-02-04T21:26:39.439Z,27.20
2019-02-04T21:29:10.457Z,25.40
2019-02-04T21:31:41.501Z,26.47
2019-02-04T21:34:12.593Z,29.03
2019-02-04T21:36:43.777Z,25.57
2019-02-04T21:39:14.877Z,26.73
2019-02-04T21:41:45.903Z,25.03
2019-02-04T21:44:17.059Z,25.73
2019-02-04T21:46:48.037Z,29.07
2019-02-04T21:49:19.049Z,24.20
2019-02-04T21:51:50.085Z,23.37
2019-02-04T21:54:21.542Z,26.50
2019-02-04T21:56:53.350Z,25.17
2019-02-04T21:59:24.410Z,26.07
2019-02-04T22:01:55.386Z,27.13
2019-02-04T22:04:26.442Z,29.83
2019-02-04T22:06:57.568Z,26.07
2019-02-04T22:09:28.970Z,27.23
2019-02-04T22:11:59.954Z,23.17
2019-02-04T22:14:31.052Z,29.77
2019-02-04T22:17:01.981Z,25.83
2019-02-04T22:19:33.058Z,25.50
2019-02-04T22:22:04.591Z,26.97
2019-02-04T22:24:36.630Z,29.00
2019-02-04T22:27:07.713Z,27.10
2019-02-04T22:29:38.595Z,26.47
2019-02-04T22:32:09.685Z,27.70
2019-02-04T22:34:40.996Z,25.53
2019-02-04T22:37:11.998Z,25.77
2019-02-04T22:39:43.053Z,24.43
2019-02-04T22:42:14.066Z,24.33
2019-02-04T22:44:45.032Z,31.57
2019-02-04T22:47:16.391Z,25.97
2019-02-04T22:49:47.414Z,34.63
2019-02-04T22:52:18.637Z,26.80
2019-02-04T22:54:49.651Z,30.03
2019-02-04T22:57:20.774Z,25.63
2019-02-04T22:59:52.201Z,25.83
2019-02-04T23:02:23.185Z,24.50
2019-02-04T23:04:54.379Z,25.33
2019-02-04T23:07:25.355Z,23.87
2019-02-04T23:09:57.177Z,23.63
2019-02-04T23:12:29.211Z,25.77
2019-02-04T23:15:00.342Z,22.03
2019-02-04T23:17:31.328Z,22.57
2019-02-04T23:20:02.349Z,21.97
2019-02-04T23:22:33.353Z,22.03
2019-02-04T23:25:07.078Z,23.97
2019-02-04T23:27:38.131Z,22.23
2019-02-04T23:30:12.057Z,22.80
2019-02-04T23:32:43.337Z,23.40
2019-02-04T23:35:14.687Z,21.80
2019-02-04T23:37:49.898Z,23.87
2019-02-04T23:40:21.418Z,20.03
2019-02-04T23:42:52.444Z,22.63
2019-02-04T23:45:23.585Z,25.90
2019-02-04T23:47:54.615Z,24.07
2019-02-04T23:50:25.756Z,21.17
2019-02-04T23:52:56.749Z,18.47
2019-02-04T23:55:27.766Z,20.20
2019-02-04T23:57:58.945Z,19.23
